createdAt,value
2022-08-16T00:00:44.180Z,81.16
2022-08-16T00:03:30.271Z,80.91
2022-08-16T00:06:23.110Z,80.94
2022-08-16T00:09:10.889Z,80.98
2022-08-16T00:11:57.699Z,81.17
2022-08-16T00:14:44.453Z,81.11
2022-08-16T00:17:57.052Z,81.03
2022-08-16T00:20:38.925Z,80.81
2022-08-16T00:23:34.280Z,80.78
2022-08-16T00:26:35.030Z,81.06
2022-08-16T00:29:24.419Z,80.58
2022-08-16T00:32:11.261Z,80.42
2022-08-16T00:34:56.868Z,80.37
2022-08-16T00:37:56.980Z,80.66
2022-08-16T00:40:50.936Z,80.88
2022-08-16T00:43:43.175Z,80.60
2022-08-16T00:46:36.208Z,80.64
2022-08-16T00:49:22.809Z,80.38
2022-08-16T00:52:29.759Z,80.91
2022-08-16T00:55:14.405Z,80.81
2022-08-16T00:58:02.331Z,80.70
2022-08-16T01:00:53.902Z,80.66
2022-08-16T01:03:45.857Z,80.57
2022-08-16T01:06:48.979Z,80.79
2022-08-16T01:09:42.952Z,80.98
2022-08-16T01:12:28.349Z,80.98
2022-08-16T01:15:15.215Z,81.27
2022-08-16T01:18:04.373Z,81.74
2022-08-16T01:20:58.341Z,81.77
2022-08-16T01:24:51.525Z,81.61
2022-08-16T01:27:19.716Z,82.21
2022-08-16T01:30:19.900Z,82.16
2022-08-16T01:33:14.496Z,82.06
2022-08-16T01:36:11.653Z,82.04
2022-08-16T01:38:57.961Z,81.65
2022-08-16T01:41:46.773Z,81.67
2022-08-16T01:44:37.607Z,81.95
2022-08-16T01:47:24.180Z,81.81
2022-08-16T01:50:42.483Z,82.08
2022-08-16T01:53:15.094Z,82.34
2022-08-16T01:56:24.511Z,82.74
2022-08-16T01:59:15.870Z,82.67
2022-08-16T02:02:04.882Z,82.94
2022-08-16T02:05:12.104Z,83.00
2022-08-16T02:07:58.431Z,83.20
2022-08-16T02:10:44.251Z,83.48
2022-08-16T02:13:32.858Z,83.63
2022-08-16T02:16:19.698Z,83.84
2022-08-16T02:19:16.101Z,84.23
2022-08-16T02:22:09.054Z,84.36
2022-08-16T02:25:15.067Z,84.73
2022-08-16T02:28:01.101Z,84.50
2022-08-16T02:30:50.951Z,85.09
2022-08-16T02:33:43.637Z,85.08
2022-08-16T02:36:47.752Z,85.42
2022-08-16T02:39:39.076Z,85.20
2022-08-16T02:42:27.432Z,85.47
2022-08-16T02:45:15.669Z,84.71
2022-08-16T02:48:29.482Z,84.59
2022-08-16T02:51:10.771Z,84.54
2022-08-16T02:53:59.921Z,84.77
2022-08-16T02:56:47.709Z,85.02
2022-08-16T02:59:39.600Z,85.63
2022-08-16T03:02:31.780Z,85.47
2022-08-16T03:05:21.032Z,85.03
2022-08-16T03:08:06.995Z,85.01
2022-08-16T03:11:16.487Z,85.38
2022-08-16T03:14:07.497Z,85.15
2022-08-16T03:17:00.402Z,85.28
2022-08-16T03:19:59.976Z,85.25
2022-08-16T03:22:53.859Z,85.19
2022-08-16T03:25:44.415Z,85.53
2022-08-16T03:28:32.278Z,85.65
2022-08-16T03:31:18.199Z,85.67
2022-08-16T03:34:04.174Z,86.06
2022-08-16T03:36:49.626Z,86.25
2022-08-16T03:39:42.788Z,86.49
2022-08-16T03:42:29.420Z,86.55
2022-08-16T03:45:16.400Z,86.34
2022-08-16T03:48:02.751Z,86.29
2022-08-16T03:50:59.817Z,86.14
2022-08-16T03:54:00.960Z,86.05
2022-08-16T03:56:56.679Z,86.09
2022-08-16T03:59:46.116Z,85.95
2022-08-16T04:02:33.554Z,85.83
2022-08-16T04:05:24.499Z,85.32
2022-08-16T04:08:22.326Z,84.93
2022-08-16T04:11:11.371Z,84.74
2022-08-16T04:14:32.495Z,84.19
2022-08-16T04:17:07.919Z,84.38
2022-08-16T04:19:58.167Z,84.39
2022-08-16T04:22:44.910Z,84.65
2022-08-16T04:25:35.625Z,84.70
2022-08-16T04:28:52.044Z,84.53
2022-08-16T04:31:29.626Z,84.29
2022-08-16T04:34:16.936Z,84.45
2022-08-16T04:37:06.852Z,84.04
2022-08-16T04:39:57.512Z,84.28
2022-08-16T04:42:45.956Z,84.41
2022-08-16T04:45:36.229Z,84.15
2022-08-16T04:48:34.209Z,84.35
2022-08-16T04:51:36.003Z,84.53
2022-08-16T04:54:22.721Z,84.27
2022-08-16T04:57:08.378Z,84.53
2022-08-16T04:59:55.985Z,85.11
2022-08-16T05:02:42.988Z,84.92
2022-08-16T05:05:32.746Z,84.84
2022-08-16T05:08:29.543Z,85.11
2022-08-16T05:11:22.627Z,84.84
2022-08-16T05:14:20.259Z,85.12
2022-08-16T05:17:18.865Z,84.89
2022-08-16T05:20:39.370Z,84.85
2022-08-16T05:23:17.497Z,84.16
2022-08-16T05:26:04.809Z,84.65
2022-08-16T05:28:55.161Z,84.92
2022-08-16T05:31:48.021Z,85.16
2022-08-16T05:34:35.411Z,85.08
2022-08-16T05:37:24.555Z,85.48
2022-08-16T05:40:13.205Z,85.55
2022-08-16T05:43:03.526Z,86.21
2022-08-16T05:45:52.714Z,86.29
2022-08-16T05:48:38.286Z,86.54
2022-08-16T05:51:38.125Z,86.88
2022-08-16T05:54:29.356Z,87.66
2022-08-16T05:57:20.607Z,87.53
2022-08-16T06:00:12.636Z,87.55
2022-08-16T06:03:12.957Z,87.56
2022-08-16T06:06:28.067Z,88.08
2022-08-16T06:09:17.206Z,88.23
2022-08-16T06:12:04.109Z,88.11
2022-08-16T06:14:51.382Z,88.02
2022-08-16T06:17:42.951Z,85.35
2022-08-16T06:20:55.314Z,84.75
2022-08-16T06:23:42.835Z,83.34
2022-08-16T06:26:34.686Z,83.56
2022-08-16T06:29:24.697Z,82.71
2022-08-16T06:32:27.697Z,83.14
2022-08-16T06:35:16.605Z,83.15
2022-08-16T06:38:05.055Z,82.92
2022-08-16T06:40:51.197Z,83.90
2022-08-16T06:43:38.008Z,83.17
2022-08-16T06:46:37.521Z,81.81
2022-08-16T06:49:29.866Z,80.08
2022-08-16T06:52:57.826Z,79.21
2022-08-16T06:55:25.746Z,77.12
2022-08-16T06:58:22.259Z,74.39
2022-08-16T07:01:42.848Z,74.56
2022-08-16T07:04:32.528Z,74.26
2022-08-16T07:07:33.849Z,74.35
2022-08-16T07:10:25.698Z,75.64
2022-08-16T07:13:16.759Z,74.97
2022-08-16T07:16:20.448Z,73.92
2022-08-16T07:19:06.900Z,73.85
2022-08-16T07:21:59.363Z,74.64
2022-08-16T07:24:46.695Z,75.81
2022-08-16T07:27:33.916Z,75.30
2022-08-16T07:30:39.127Z,74.40
2022-08-16T07:33:51.847Z,71.70
2022-08-16T07:36:45.270Z,71.65
2022-08-16T07:39:44.584Z,70.54
2022-08-16T07:42:35.174Z,70.30
2022-08-16T07:45:21.601Z,71.13
2022-08-16T07:48:11.891Z,71.10
2022-08-16T07:51:08.904Z,71.74
2022-08-16T07:54:02.648Z,71.23
2022-08-16T07:56:59.001Z,71.58
2022-08-16T07:59:46.465Z,70.17
2022-08-16T08:02:35.234Z,70.88
2022-08-16T08:05:25.524Z,71.61
2022-08-16T08:08:51.078Z,71.63
2022-08-16T08:11:30.019Z,70.27
2022-08-16T08:14:29.697Z,71.73
2022-08-16T08:17:18.384Z,71.91
2022-08-16T08:20:04.610Z,71.93
2022-08-16T08:22:51.506Z,70.82
2022-08-16T08:25:53.419Z,72.23
2022-08-16T08:28:41.474Z,72.67
2022-08-16T08:31:27.562Z,72.39
2022-08-16T08:34:13.826Z,71.82
2022-08-16T08:37:05.478Z,72.18
2022-08-16T08:39:57.621Z,71.74
2022-08-16T08:42:43.674Z,71.29
2022-08-16T08:45:52.715Z,71.65
2022-08-16T08:48:40.326Z,71.91
2022-08-16T08:51:36.681Z,71.72
2022-08-16T08:54:23.063Z,72.56
2022-08-16T08:57:12.895Z,71.93
2022-08-16T09:00:30.067Z,70.95
2022-08-16T09:03:18.085Z,70.38
2022-08-16T09:06:06.020Z,71.79
2022-08-16T09:08:55.717Z,71.41
2022-08-16T09:11:47.251Z,71.45
2022-08-16T09:14:38.811Z,71.46
2022-08-16T09:17:51.660Z,71.60
2022-08-16T09:20:59.106Z,72.41
2022-08-16T09:23:46.372Z,71.98
2022-08-16T09:26:44.925Z,72.08
2022-08-16T09:29:45.519Z,71.49
2022-08-16T09:32:34.850Z,70.77
2022-08-16T09:35:22.360Z,70.40
2022-08-16T09:38:09.919Z,70.83
2022-08-16T09:40:58.742Z,70.69
2022-08-16T09:43:59.504Z,70.94
2022-08-16T09:46:49.555Z,70.12
2022-08-16T09:49:37.047Z,69.33
2022-08-16T09:52:23.005Z,69.93
2022-08-16T09:55:12.504Z,70.18
2022-08-16T09:57:58.632Z,69.29
2022-08-16T10:00:45.580Z,68.19
2022-08-16T10:03:31.682Z,68.82
2022-08-16T10:06:19.151Z,69.28
2022-08-16T10:09:11.373Z,69.41
2022-08-16T10:12:19.347Z,68.37
2022-08-16T10:15:08.769Z,68.34
2022-08-16T10:19:02.085Z,67.40
2022-08-16T10:21:13.926Z,67.83
2022-08-16T10:24:00.107Z,67.70
2022-08-16T10:27:20.421Z,68.07
2022-08-16T10:30:00.893Z,67.87
2022-08-16T10:32:47.714Z,69.11
2022-08-16T10:35:33.324Z,68.16
2022-08-16T10:38:27.635Z,68.60
2022-08-16T10:41:15.982Z,69.14
2022-08-16T10:44:02.117Z,65.90
2022-08-16T10:46:47.727Z,64.48
2022-08-16T10:49:34.979Z,64.48
2022-08-16T10:52:24.324Z,65.30
2022-08-16T10:58:17.386Z,65.61
2022-08-16T11:17:10.425Z,66.19
2022-08-16T11:23:16.438Z,65.24
2022-08-16T11:26:10.281Z,66.18
2022-08-16T11:29:15.046Z,66.78
2022-08-16T11:32:02.063Z,66.33
2022-08-16T11:35:10.349Z,66.67
2022-08-16T11:38:23.442Z,68.33
2022-08-16T11:41:08.177Z,67.00
2022-08-16T11:43:54.930Z,66.72
2022-08-16T11:46:45.050Z,66.54
2022-08-16T11:49:31.840Z,66.24
2022-08-16T11:52:17.987Z,66.19
2022-08-16T11:55:12.835Z,67.22
2022-08-16T11:58:00.437Z,65.23
2022-08-16T12:00:51.829Z,65.63
2022-08-16T12:03:39.131Z,65.70
2022-08-16T12:06:30.486Z,66.02
2022-08-16T12:09:16.589Z,66.15
2022-08-16T12:12:04.281Z,65.75
2022-08-16T12:14:59.831Z,65.77
2022-08-16T12:17:46.935Z,65.52
2022-08-16T12:20:38.225Z,65.97
2022-08-16T12:23:24.391Z,64.09
2022-08-16T12:26:10.836Z,64.49
2022-08-16T12:28:56.667Z,63.17
2022-08-16T12:32:01.187Z,63.17
2022-08-16T12:34:53.122Z,63.89
2022-08-16T12:37:41.525Z,65.26
2022-08-16T12:40:34.942Z,65.95
2022-08-16T12:43:23.812Z,65.22
2022-08-16T12:46:10.873Z,64.19
2022-08-16T12:49:00.137Z,64.12
2022-08-16T12:51:59.072Z,64.62
2022-08-16T12:54:46.165Z,65.65
2022-08-16T12:57:42.055Z,66.06
2022-08-16T13:00:33.646Z,65.09
2022-08-16T13:03:21.460Z,64.59
2022-08-16T13:06:08.585Z,64.64
2022-08-16T13:08:55.553Z,64.28
2022-08-16T13:11:49.266Z,65.10
2022-08-16T13:14:45.285Z,65.81
2022-08-16T13:17:31.209Z,65.79
2022-08-16T13:20:20.671Z,65.62
2022-08-16T13:23:11.367Z,67.14
2022-08-16T13:25:58.101Z,67.25
2022-08-16T13:28:47.696Z,69.97
2022-08-16T13:31:34.073Z,71.65
2022-08-16T13:34:20.237Z,73.38
2022-08-16T13:37:06.106Z,74.45
2022-08-16T13:39:52.030Z,75.71
2022-08-16T13:42:41.445Z,75.85
2022-08-16T13:45:36.231Z,76.34
2022-08-16T13:48:42.567Z,77.36
2022-08-16T13:51:31.557Z,76.88
2022-08-16T13:57:11.539Z,76.79
2022-08-16T13:59:57.768Z,76.22
2022-08-16T14:02:45.222Z,76.58
2022-08-16T14:05:33.419Z,76.48
2022-08-16T14:08:22.835Z,76.67
2022-08-16T14:11:14.546Z,76.41
2022-08-16T14:14:00.253Z,75.97
2022-08-16T14:16:45.942Z,75.55
2022-08-16T14:19:31.766Z,75.79
2022-08-16T14:22:30.687Z,75.67
2022-08-16T14:25:20.982Z,76.78
2022-08-16T14:28:09.559Z,76.97
2022-08-16T14:30:55.604Z,76.84
2022-08-16T14:33:41.549Z,76.95
2022-08-16T14:36:30.090Z,76.78
2022-08-16T14:39:18.154Z,76.85
2022-08-16T14:42:08.863Z,77.50
2022-08-16T14:44:55.943Z,77.43
2022-08-16T14:47:42.507Z,77.10
2022-08-16T14:50:28.783Z,77.71
2022-08-16T14:53:14.490Z,77.98
2022-08-16T14:56:03.641Z,78.42
2022-08-16T14:58:50.381Z,79.05
2022-08-16T15:01:57.418Z,79.20
2022-08-16T15:04:48.406Z,79.16
2022-08-16T15:07:35.535Z,79.32
2022-08-16T15:10:24.325Z,79.18
2022-08-16T15:13:13.810Z,79.01
2022-08-16T15:16:02.999Z,79.78
2022-08-16T15:18:49.564Z,79.67
2022-08-16T15:21:36.354Z,80.24
2022-08-16T15:24:22.921Z,80.62
2022-08-16T15:27:10.657Z,80.59
2022-08-16T15:29:57.976Z,81.13
2022-08-16T15:32:43.432Z,81.50
2022-08-16T15:35:31.848Z,82.23
2022-08-16T15:38:54.866Z,82.18
2022-08-16T15:41:43.058Z,82.34
2022-08-16T15:44:38.879Z,82.41
2022-08-16T15:47:37.653Z,82.13
2022-08-16T15:50:25.070Z,82.20
2022-08-16T15:53:20.138Z,82.45
2022-08-16T15:56:06.891Z,83.12
2022-08-16T15:58:55.812Z,82.93
2022-08-16T16:01:42.039Z,83.07
2022-08-16T16:04:31.374Z,83.04
2022-08-16T16:07:16.948Z,82.70
2022-08-16T16:10:07.867Z,82.62
2022-08-16T16:13:01.843Z,82.93
2022-08-16T16:15:52.670Z,82.91
2022-08-16T16:18:39.475Z,83.00
2022-08-16T16:21:26.545Z,82.85
2022-08-16T16:24:21.405Z,82.39
2022-08-16T16:27:09.924Z,81.90
2022-08-16T16:29:58.101Z,81.18
2022-08-16T16:32:48.860Z,81.56
2022-08-16T16:35:36.934Z,81.81
2022-08-16T16:38:22.460Z,81.51
2022-08-16T16:41:09.798Z,80.96
2022-08-16T16:43:56.964Z,79.78
2022-08-16T16:46:43.924Z,79.67
2022-08-16T16:49:29.541Z,79.55
2022-08-16T16:52:43.331Z,79.64
2022-08-16T16:55:23.007Z,80.47
2022-08-16T16:58:36.617Z,81.10
2022-08-16T17:01:35.010Z,81.96
2022-08-16T17:04:37.727Z,82.44
2022-08-16T17:07:24.214Z,82.87
2022-08-16T17:10:10.491Z,83.13
2022-08-16T17:12:56.691Z,83.66
2022-08-16T17:15:42.238Z,82.79
2022-08-16T17:19:14.781Z,82.67
2022-08-16T17:21:37.113Z,82.49
2022-08-16T17:24:33.218Z,82.51
2022-08-16T17:27:32.799Z,82.77
2022-08-16T17:30:29.626Z,82.68
2022-08-16T17:33:36.952Z,83.71
2022-08-16T17:36:36.367Z,83.37
2022-08-16T17:39:23.828Z,83.20
2022-08-16T17:42:17.927Z,83.10
2022-08-16T17:45:03.988Z,82.52
2022-08-16T17:47:50.394Z,82.49
2022-08-16T17:50:37.556Z,81.99
2022-08-16T17:53:23.698Z,82.06
2022-08-16T17:56:10.623Z,82.13
2022-08-16T17:58:56.359Z,82.66
2022-08-16T18:01:42.581Z,82.60
2022-08-16T18:04:48.489Z,82.60
2022-08-16T18:07:35.421Z,82.38
2022-08-16T18:10:33.083Z,81.65
2022-08-16T18:13:21.703Z,81.78
2022-08-16T18:16:07.520Z,81.41
2022-08-16T18:18:53.264Z,82.05
2022-08-16T18:21:57.513Z,82.21
2022-08-16T18:24:50.962Z,82.47
2022-08-16T18:27:36.881Z,82.29
2022-08-16T18:30:24.551Z,82.25
2022-08-16T18:33:11.218Z,82.59
2022-08-16T18:35:57.839Z,83.40
2022-08-16T18:38:43.653Z,84.33
2022-08-16T18:41:30.513Z,85.10
2022-08-16T18:44:25.024Z,80.95
2022-08-16T18:47:13.864Z,81.54
2022-08-16T18:49:59.864Z,79.39
2022-08-16T18:52:57.522Z,79.64
2022-08-16T18:55:45.258Z,81.31
2022-08-16T18:58:34.013Z,81.39
2022-08-16T19:01:19.674Z,82.60
2022-08-16T19:04:05.326Z,82.64
2022-08-16T19:07:11.261Z,82.71
2022-08-16T19:09:56.668Z,82.67
2022-08-16T19:12:45.095Z,82.56
2022-08-16T19:15:31.226Z,82.38
2022-08-16T19:18:17.396Z,81.22
2022-08-16T19:21:03.200Z,81.98
2022-08-16T19:23:48.600Z,81.98
2022-08-16T19:26:38.353Z,81.70
2022-08-16T19:29:24.546Z,81.80
2022-08-16T19:32:39.562Z,81.35
2022-08-16T19:35:25.324Z,81.71
2022-08-16T19:38:12.115Z,81.84
2022-08-16T19:40:57.943Z,81.24
2022-08-16T19:43:43.564Z,81.09
2022-08-16T19:46:29.191Z,80.95
2022-08-16T19:49:16.420Z,81.18
2022-08-16T19:52:23.707Z,80.99
2022-08-16T19:55:11.755Z,80.95
2022-08-16T19:57:57.661Z,80.61
2022-08-16T20:00:45.681Z,81.09
2022-08-16T20:03:31.410Z,81.76
2022-08-16T20:06:32.197Z,81.45
2022-08-16T20:09:23.469Z,81.19
2022-08-16T20:12:15.604Z,81.27
2022-08-16T20:15:01.424Z,81.65
2022-08-16T20:17:48.321Z,81.42
2022-08-16T20:20:33.840Z,81.30
2022-08-16T20:23:24.866Z,81.53
2022-08-16T20:26:10.966Z,81.81
2022-08-16T20:28:56.839Z,82.52
2022-08-16T20:31:42.666Z,82.62
2022-08-16T20:34:27.975Z,82.92
2022-08-16T20:37:16.301Z,83.52
2022-08-16T20:40:27.274Z,83.65
2022-08-16T20:43:10.547Z,83.73
2022-08-16T20:45:56.218Z,84.02
2022-08-16T20:48:42.082Z,83.76
2022-08-16T20:51:28.161Z,84.00
2022-08-16T20:54:14.859Z,84.32
2022-08-16T20:57:02.937Z,84.55
2022-08-16T20:59:50.272Z,84.55
2022-08-16T21:02:35.749Z,85.11
2022-08-16T21:05:30.984Z,84.90
2022-08-16T21:08:37.797Z,84.49
2022-08-16T21:11:23.819Z,84.60
2022-08-16T21:14:11.695Z,83.21
2022-08-16T21:16:57.200Z,83.29
2022-08-16T21:19:44.970Z,82.81
2022-08-16T21:22:30.726Z,82.50
2022-08-16T21:25:16.835Z,82.37
2022-08-16T21:29:33.673Z,82.12
2022-08-16T21:32:35.772Z,81.80
2022-08-16T21:35:22.008Z,81.62
2022-08-16T21:38:29.371Z,82.01
2022-08-16T21:41:16.160Z,82.04
2022-08-16T21:44:01.749Z,82.09
2022-08-16T21:46:47.466Z,82.93
2022-08-16T21:49:33.005Z,82.91
2022-08-16T21:52:27.059Z,83.06
2022-08-16T21:55:12.628Z,83.15
2022-08-16T21:57:58.727Z,83.89
2022-08-16T22:00:44.954Z,84.47
2022-08-16T22:03:33.928Z,85.42
2022-08-16T22:06:19.692Z,85.83
2022-08-16T22:09:07.203Z,86.29
2022-08-16T22:11:52.922Z,86.85
2022-08-16T22:14:38.906Z,86.11
2022-08-16T22:17:24.344Z,86.25
2022-08-16T22:20:10.913Z,85.56
2022-08-16T22:23:12.414Z,85.75
2022-08-16T22:25:57.905Z,85.78
2022-08-16T22:28:43.898Z,86.01
2022-08-16T22:31:29.379Z,86.35
2022-08-16T22:34:15.298Z,86.63
2022-08-16T22:37:01.012Z,86.56
2022-08-16T22:39:46.689Z,86.90
2022-08-16T22:42:32.876Z,86.81
2022-08-16T22:45:20.318Z,86.77
2022-08-16T22:48:06.168Z,86.96
2022-08-16T22:50:52.950Z,87.28
2022-08-16T22:53:38.244Z,87.38
2022-08-16T22:56:24.745Z,87.42
2022-08-16T22:59:10.190Z,87.76
2022-08-16T23:01:55.823Z,87.34
2022-08-16T23:04:42.412Z,87.02
2022-08-16T23:07:28.093Z,86.53
2022-08-16T23:10:14.178Z,86.36
2022-08-16T23:13:03.980Z,86.26
2022-08-16T23:15:55.681Z,86.80
2022-08-16T23:18:42.003Z,86.82
2022-08-16T23:21:27.860Z,86.58
2022-08-16T23:24:14.397Z,86.43
2022-08-16T23:27:00.611Z,86.10
2022-08-16T23:29:46.089Z,86.09
2022-08-16T23:32:31.572Z,85.90
2022-08-16T23:35:22.227Z,85.75
2022-08-16T23:38:08.589Z,86.01
2022-08-16T23:41:14.210Z,86.31
2022-08-16T23:43:59.646Z,86.25
2022-08-16T23:46:47.781Z,86.05
2022-08-16T23:49:57.071Z,86.63
2022-08-16T23:52:55.924Z,86.62
2022-08-16T23:55:46.920Z,86.77
2022-08-16T23:58:36.638Z,86.43
